createdAt,value
2019-03-31T00:01:48.801Z,79.97
2019-03-31T00:04:17.924Z,80.45
2019-03-31T00:06:47.389Z,80.32
2019-03-31T00:09:17.187Z,80.87
2019-03-31T00:11:49.382Z,81.08
2019-03-31T00:14:18.910Z,81.04
2019-03-31T00:16:48.287Z,81.26
2019-03-31T00:19:17.695Z,81.28
2019-03-31T00:21:46.825Z,81.40
2019-03-31T00:24:15.919Z,82.26
2019-03-31T00:26:46.186Z,81.93
2019-03-31T00:29:16.091Z,82.16
2019-03-31T00:31:45.172Z,81.64
2019-03-31T00:34:15.182Z,81.28
2019-03-31T00:36:44.920Z,81.58
2019-03-31T00:39:15.201Z,81.46
2019-03-31T00:41:44.319Z,81.88
2019-03-31T00:44:17.362Z,81.77
2019-03-31T00:46:47.205Z,82.06
2019-03-31T00:49:17.190Z,81.91
2019-03-31T00:51:46.307Z,82.01
2019-03-31T00:54:18.413Z,82.22
2019-03-31T00:56:47.511Z,81.95
2019-03-31T00:59:16.969Z,81.67
2019-03-31T01:01:57.715Z,81.71
2019-03-31T01:04:29.124Z,81.67
2019-03-31T01:06:59.213Z,81.64
2019-03-31T01:09:30.631Z,81.97
2019-03-31T01:12:03.464Z,81.93
2019-03-31T01:14:32.546Z,82.55
2019-03-31T01:17:02.360Z,82.96
2019-03-31T01:19:31.452Z,83.51
2019-03-31T01:22:01.432Z,83.75
2019-03-31T01:24:33.710Z,83.46
2019-03-31T01:27:03.367Z,82.90
2019-03-31T01:29:34.024Z,82.98
2019-03-31T01:32:03.107Z,83.03
2019-03-31T01:34:32.991Z,83.15
2019-03-31T01:37:02.672Z,83.30
2019-03-31T01:39:33.208Z,84.03
2019-03-31T01:42:02.298Z,84.70
2019-03-31T01:44:50.776Z,84.89
2019-03-31T01:47:19.854Z,84.74
2019-03-31T01:49:52.091Z,84.21
2019-03-31T01:52:21.593Z,83.93
2019-03-31T01:54:52.045Z,83.68
2019-03-31T01:57:22.285Z,83.03
2019-03-31T01:59:55.571Z,83.67
2019-03-31T02:02:28.160Z,83.22
2019-03-31T02:05:00.577Z,83.26
2019-03-31T02:07:33.001Z,83.58
2019-03-31T02:10:02.149Z,83.90
2019-03-31T02:12:34.351Z,84.08
2019-03-31T02:15:07.266Z,84.47
2019-03-31T02:17:36.333Z,84.94
2019-03-31T02:20:06.917Z,84.57
2019-03-31T02:22:36.299Z,84.29
2019-03-31T02:25:09.677Z,85.16
2019-03-31T02:27:44.007Z,84.80
2019-03-31T02:30:13.241Z,84.14
2019-03-31T02:32:42.307Z,84.72
2019-03-31T02:35:11.427Z,84.57
2019-03-31T02:37:41.670Z,85.03
2019-03-31T02:40:12.849Z,85.25
2019-03-31T02:42:42.462Z,84.69
2019-03-31T02:45:11.867Z,84.23
2019-03-31T02:47:40.977Z,84.59
2019-03-31T02:50:15.552Z,84.87
2019-03-31T02:52:44.668Z,84.73
2019-03-31T02:55:13.783Z,84.92
2019-03-31T02:57:45.970Z,84.79
2019-03-31T03:00:16.050Z,84.94
2019-03-31T03:02:46.126Z,84.51
2019-03-31T03:05:19.934Z,84.70
2019-03-31T03:07:47.163Z,84.64
2019-03-31T03:10:20.102Z,84.70
2019-03-31T03:12:49.894Z,84.44
2019-03-31T03:15:26.974Z,84.29
2019-03-31T03:17:56.311Z,84.62
2019-03-31T03:20:25.725Z,84.99
2019-03-31T03:22:54.808Z,85.47
2019-03-31T03:25:24.310Z,85.21
2019-03-31T03:27:53.424Z,84.93
2019-03-31T03:30:22.707Z,85.73
2019-03-31T03:33:13.380Z,85.24
2019-03-31T03:35:23.865Z,85.20
2019-03-31T03:37:52.929Z,85.14
2019-03-31T03:40:23.896Z,85.50
2019-03-31T03:42:52.969Z,86.07
2019-03-31T03:45:25.531Z,85.93
2019-03-31T03:47:57.027Z,85.83
2019-03-31T03:50:27.191Z,85.49
2019-03-31T03:52:56.290Z,85.72
2019-03-31T03:55:29.062Z,85.82
2019-03-31T03:57:58.170Z,85.89
2019-03-31T04:00:27.305Z,85.80
2019-03-31T04:02:56.759Z,85.79
2019-03-31T04:05:25.904Z,85.62
2019-03-31T04:07:55.578Z,85.56
2019-03-31T04:11:14.600Z,85.37
2019-03-31T04:13:44.451Z,85.29
2019-03-31T04:16:13.853Z,85.25
2019-03-31T04:18:45.900Z,85.30
2019-03-31T04:21:15.044Z,85.81
2019-03-31T04:23:44.644Z,85.83
2019-03-31T04:26:13.744Z,85.32
2019-03-31T04:28:43.256Z,85.46
2019-03-31T04:31:15.447Z,85.52
2019-03-31T04:33:52.183Z,85.54
2019-03-31T04:36:21.779Z,85.94
2019-03-31T04:38:51.803Z,85.79
2019-03-31T04:41:22.197Z,85.71
2019-03-31T04:43:52.440Z,85.76
2019-03-31T04:46:21.967Z,85.86
2019-03-31T04:48:51.429Z,86.13
2019-03-31T04:51:20.874Z,85.94
2019-03-31T04:53:50.671Z,85.61
2019-03-31T04:56:19.820Z,85.65
2019-03-31T04:58:49.122Z,85.62
2019-03-31T05:01:18.607Z,86.07
2019-03-31T05:04:03.463Z,86.09
2019-03-31T05:06:23.090Z,85.97
2019-03-31T05:08:52.787Z,85.61
2019-03-31T05:11:25.320Z,85.61
2019-03-31T05:13:54.789Z,85.69
2019-03-31T05:16:24.320Z,85.77
2019-03-31T05:18:53.396Z,85.94
2019-03-31T05:21:22.500Z,86.12
2019-03-31T05:23:52.303Z,86.18
2019-03-31T05:26:22.073Z,86.09
2019-03-31T05:28:51.896Z,85.99
2019-03-31T05:31:22.077Z,86.07
2019-03-31T05:33:51.497Z,85.98
2019-03-31T05:36:20.859Z,85.70
2019-03-31T05:38:49.931Z,85.81
2019-03-31T05:41:19.059Z,86.01
2019-03-31T05:43:49.300Z,85.73
2019-03-31T05:46:23.600Z,85.42
2019-03-31T05:48:55.797Z,85.36
2019-03-31T05:51:29.011Z,85.45
2019-03-31T05:53:58.400Z,85.20
2019-03-31T05:56:29.746Z,85.05
2019-03-31T05:58:59.560Z,85.19
2019-03-31T06:01:29.058Z,85.17
2019-03-31T06:04:00.805Z,85.04
2019-03-31T06:06:30.217Z,84.44
2019-03-31T06:08:59.327Z,83.84
2019-03-31T06:11:28.449Z,84.09
2019-03-31T06:13:57.583Z,83.78
2019-03-31T06:16:26.705Z,83.73
2019-03-31T06:18:56.212Z,83.53
2019-03-31T06:21:25.303Z,83.15
2019-03-31T06:23:57.484Z,83.56
2019-03-31T06:26:26.563Z,82.99
2019-03-31T06:28:56.106Z,82.51
2019-03-31T06:31:25.564Z,82.47
2019-03-31T06:33:54.674Z,82.91
2019-03-31T06:36:23.766Z,82.58
2019-03-31T06:38:52.887Z,82.57
2019-03-31T06:41:22.249Z,82.61
2019-03-31T06:43:51.361Z,82.70
2019-03-31T06:46:20.745Z,80.87
2019-03-31T06:48:50.188Z,80.85
2019-03-31T06:51:20.408Z,80.85
2019-03-31T06:53:52.016Z,80.77
2019-03-31T06:56:21.113Z,80.49
2019-03-31T06:58:50.254Z,80.02
2019-03-31T07:01:23.307Z,80.31
2019-03-31T07:03:52.739Z,79.70
2019-03-31T07:06:22.239Z,79.57
2019-03-31T07:08:54.585Z,79.64
2019-03-31T07:11:23.979Z,80.72
2019-03-31T07:13:53.090Z,80.37
2019-03-31T07:16:22.176Z,80.60
2019-03-31T07:18:51.293Z,80.46
2019-03-31T07:21:20.399Z,80.53
2019-03-31T07:23:49.526Z,80.20
2019-03-31T07:26:18.600Z,79.58
2019-03-31T07:28:47.897Z,79.39
2019-03-31T07:31:23.721Z,79.23
2019-03-31T07:34:03.581Z,78.90
2019-03-31T07:36:34.467Z,78.41
2019-03-31T07:39:07.350Z,77.70
2019-03-31T07:41:37.391Z,77.45
2019-03-31T07:44:06.809Z,76.82
2019-03-31T07:46:35.888Z,76.10
2019-03-31T07:49:05.717Z,75.06
2019-03-31T07:51:37.516Z,75.30
2019-03-31T07:54:05.628Z,75.07
2019-03-31T07:56:35.184Z,74.69
2019-03-31T07:59:05.275Z,74.54
2019-03-31T08:01:36.889Z,73.42
2019-03-31T08:04:08.070Z,72.74
2019-03-31T08:06:40.588Z,72.32
2019-03-31T08:09:10.118Z,72.61
2019-03-31T08:11:39.949Z,73.36
2019-03-31T08:14:12.512Z,73.35
2019-03-31T08:16:42.303Z,72.55
2019-03-31T08:19:11.402Z,71.19
2019-03-31T08:21:43.768Z,70.06
2019-03-31T08:24:16.254Z,71.69
2019-03-31T08:26:45.350Z,71.71
2019-03-31T08:29:35.671Z,72.03
2019-03-31T08:32:07.305Z,70.58
2019-03-31T08:34:50.816Z,69.39
2019-03-31T08:37:46.104Z,68.50
2019-03-31T08:40:15.167Z,67.89
2019-03-31T08:42:47.759Z,67.07
2019-03-31T08:45:18.480Z,67.28
2019-03-31T08:47:48.158Z,65.66
2019-03-31T08:50:17.264Z,67.18
2019-03-31T08:52:47.435Z,67.00
2019-03-31T08:55:16.532Z,66.46
2019-03-31T08:57:45.971Z,66.55
2019-03-31T09:00:49.689Z,65.80
2019-03-31T09:03:18.777Z,66.61
2019-03-31T09:06:01.069Z,67.03
2019-03-31T09:08:19.421Z,67.19
2019-03-31T09:10:49.301Z,67.56
2019-03-31T09:13:22.141Z,66.97
2019-03-31T09:15:51.633Z,66.45
2019-03-31T09:18:21.213Z,67.81
2019-03-31T09:20:50.655Z,67.80
2019-03-31T09:23:19.764Z,68.47
2019-03-31T09:25:49.547Z,68.96
2019-03-31T09:28:19.411Z,68.71
2019-03-31T09:30:51.841Z,69.18
2019-03-31T09:33:20.962Z,68.35
2019-03-31T09:35:51.211Z,69.07
2019-03-31T09:38:21.057Z,69.97
2019-03-31T09:40:52.845Z,70.23
2019-03-31T09:43:28.348Z,69.67
2019-03-31T09:46:06.203Z,70.35
2019-03-31T09:48:35.310Z,70.63
2019-03-31T09:51:09.219Z,70.10
2019-03-31T09:53:38.295Z,68.11
2019-03-31T09:56:14.999Z,67.73
2019-03-31T09:58:43.198Z,68.16
2019-03-31T10:01:12.324Z,68.30
2019-03-31T10:03:41.418Z,68.65
2019-03-31T10:06:11.377Z,68.58
2019-03-31T10:08:46.698Z,69.35
2019-03-31T10:11:16.085Z,68.60
2019-03-31T10:13:47.122Z,68.65
2019-03-31T10:16:16.866Z,66.13
2019-03-31T10:18:46.675Z,65.95
2019-03-31T10:21:25.073Z,64.91
2019-03-31T10:23:54.513Z,64.42
2019-03-31T10:26:31.865Z,64.47
2019-03-31T10:28:56.735Z,64.45
2019-03-31T10:31:26.159Z,64.00
2019-03-31T10:33:58.405Z,63.74
2019-03-31T10:36:27.467Z,63.49
2019-03-31T10:38:56.777Z,62.86
2019-03-31T10:41:31.041Z,62.56
2019-03-31T10:44:00.858Z,62.75
2019-03-31T10:46:29.940Z,61.41
2019-03-31T10:48:59.366Z,61.76
2019-03-31T10:51:28.872Z,62.00
2019-03-31T10:53:58.442Z,61.19
2019-03-31T10:56:28.255Z,60.70
2019-03-31T10:58:58.243Z,59.43
2019-03-31T11:01:30.473Z,60.27
2019-03-31T11:03:59.541Z,60.57
2019-03-31T11:06:28.724Z,59.20
2019-03-31T11:09:00.349Z,59.51
2019-03-31T11:11:31.997Z,60.22
2019-03-31T11:14:01.732Z,60.34
2019-03-31T11:16:36.287Z,61.42
2019-03-31T11:19:05.369Z,60.83
2019-03-31T11:21:42.420Z,60.50
2019-03-31T11:24:11.767Z,61.25
2019-03-31T11:26:40.881Z,60.50
2019-03-31T11:29:10.286Z,60.23
2019-03-31T11:31:39.430Z,59.69
2019-03-31T11:34:10.916Z,58.27
2019-03-31T11:36:40.049Z,58.62
2019-03-31T11:39:09.120Z,58.91
2019-03-31T11:41:38.254Z,58.59
2019-03-31T11:44:07.711Z,58.14
2019-03-31T11:46:40.467Z,58.16
2019-03-31T11:49:09.564Z,58.51
2019-03-31T11:51:39.345Z,58.04
2019-03-31T11:54:08.718Z,56.96
2019-03-31T11:56:38.183Z,56.78
2019-03-31T11:59:07.565Z,56.70
2019-03-31T12:01:40.074Z,56.67
2019-03-31T12:04:09.851Z,56.34
2019-03-31T12:06:42.343Z,54.18
2019-03-31T12:09:11.425Z,53.96
2019-03-31T12:11:45.534Z,54.44
2019-03-31T12:14:13.393Z,54.46
2019-03-31T12:16:46.190Z,53.57
2019-03-31T12:19:17.482Z,53.80
2019-03-31T12:21:46.860Z,54.48
2019-03-31T12:24:16.233Z,54.18
2019-03-31T12:26:45.345Z,54.94
2019-03-31T12:29:14.923Z,55.27
2019-03-31T12:31:44.037Z,54.41
2019-03-31T12:34:13.128Z,53.97
2019-03-31T12:36:42.269Z,53.96
2019-03-31T12:39:15.333Z,52.63
2019-03-31T12:41:44.434Z,51.56
2019-03-31T12:44:16.232Z,52.65
2019-03-31T12:46:45.659Z,52.85
2019-03-31T12:49:14.770Z,52.29
2019-03-31T12:51:43.910Z,51.86
2019-03-31T12:54:13.175Z,53.07
2019-03-31T12:56:42.292Z,52.96
2019-03-31T12:59:11.758Z,53.16
2019-03-31T13:01:41.180Z,53.48
2019-03-31T13:04:10.682Z,53.03
2019-03-31T13:06:43.145Z,52.96
2019-03-31T13:09:12.232Z,52.50
2019-03-31T13:11:42.055Z,53.32
2019-03-31T13:14:11.570Z,50.09
2019-03-31T13:16:40.960Z,48.32
2019-03-31T13:19:10.058Z,47.55
2019-03-31T13:21:39.483Z,46.50
2019-03-31T13:24:08.564Z,47.04
2019-03-31T13:26:37.666Z,46.20
2019-03-31T13:29:06.750Z,45.33
2019-03-31T13:31:36.200Z,47.26
2019-03-31T13:34:05.839Z,46.97
2019-03-31T13:36:34.950Z,45.93
2019-03-31T13:39:06.015Z,47.57
2019-03-31T13:41:35.153Z,46.11
2019-03-31T13:44:07.552Z,45.87
2019-03-31T13:46:37.355Z,45.97
2019-03-31T13:49:06.496Z,46.12
2019-03-31T13:51:36.305Z,46.62
2019-03-31T13:54:05.454Z,46.98
2019-03-31T13:56:34.957Z,44.70
2019-03-31T13:59:04.668Z,44.80
2019-03-31T14:01:34.413Z,44.99
2019-03-31T14:04:03.940Z,45.08
2019-03-31T14:06:33.453Z,45.91
2019-03-31T14:09:02.649Z,46.63
2019-03-31T14:11:51.567Z,47.05
2019-03-31T14:14:21.350Z,46.53
2019-03-31T14:16:50.459Z,47.58
2019-03-31T14:19:19.882Z,48.20
2019-03-31T14:21:49.112Z,47.89
2019-03-31T14:24:18.232Z,46.80
2019-03-31T14:26:47.924Z,47.38
2019-03-31T14:29:17.842Z,47.08
2019-03-31T14:31:47.411Z,46.83
2019-03-31T14:34:17.261Z,45.50
2019-03-31T14:36:46.398Z,44.77
2019-03-31T14:39:17.252Z,44.34
2019-03-31T14:41:47.207Z,45.19
2019-03-31T14:44:17.374Z,45.88
2019-03-31T14:46:47.141Z,45.08
2019-03-31T14:49:16.652Z,45.70
2019-03-31T14:51:48.848Z,45.78
2019-03-31T14:54:21.342Z,46.07
2019-03-31T14:56:50.670Z,46.96
2019-03-31T14:59:20.096Z,47.02
2019-03-31T15:01:49.214Z,47.80
2019-03-31T15:04:18.334Z,47.60
2019-03-31T15:06:47.425Z,48.27
2019-03-31T15:09:19.898Z,47.94
2019-03-31T15:11:48.979Z,48.00
2019-03-31T15:14:18.098Z,46.56
2019-03-31T15:16:50.237Z,46.69
2019-03-31T15:19:19.350Z,46.84
2019-03-31T15:21:48.475Z,46.50
2019-03-31T15:24:17.560Z,47.00
2019-03-31T15:26:46.649Z,46.01
2019-03-31T15:29:16.084Z,45.34
2019-03-31T15:31:49.855Z,46.07
2019-03-31T15:34:18.935Z,45.62
2019-03-31T15:36:49.003Z,45.10
2019-03-31T15:39:23.804Z,45.19
2019-03-31T15:41:53.165Z,44.93
2019-03-31T15:44:23.100Z,44.58
2019-03-31T15:46:56.861Z,44.79
2019-03-31T15:49:25.144Z,44.09
2019-03-31T15:51:54.196Z,44.71
2019-03-31T15:54:23.284Z,43.66
2019-03-31T15:56:53.065Z,43.50
2019-03-31T15:59:22.633Z,44.14
2019-03-31T16:01:51.993Z,43.01
2019-03-31T16:04:21.091Z,42.79
2019-03-31T16:06:50.883Z,44.21
2019-03-31T16:09:23.681Z,43.30
2019-03-31T16:11:53.880Z,41.95
2019-03-31T16:14:22.202Z,42.38
2019-03-31T16:16:52.603Z,43.20
2019-03-31T16:19:21.526Z,41.82
2019-03-31T16:21:55.135Z,42.74
2019-03-31T16:24:37.615Z,43.18
2019-03-31T16:27:08.065Z,44.15
2019-03-31T16:29:36.630Z,44.49
2019-03-31T16:32:06.165Z,42.90
2019-03-31T16:34:35.110Z,43.26
2019-03-31T16:37:05.211Z,42.78
2019-03-31T16:39:37.763Z,42.76
2019-03-31T16:42:05.183Z,42.47
2019-03-31T16:44:38.769Z,42.15
2019-03-31T16:47:07.695Z,42.49
2019-03-31T16:49:36.604Z,42.63
2019-03-31T16:52:06.719Z,43.64
2019-03-31T16:54:37.885Z,43.17
2019-03-31T16:57:07.282Z,43.82
2019-03-31T16:59:40.454Z,43.10
2019-03-31T17:02:09.419Z,43.12
2019-03-31T17:04:38.462Z,43.02
2019-03-31T17:07:07.397Z,42.65
2019-03-31T17:09:51.303Z,42.98
2019-03-31T17:12:12.611Z,42.70
2019-03-31T17:14:46.205Z,41.93
2019-03-31T17:17:20.188Z,41.63
2019-03-31T17:19:49.639Z,41.60
2019-03-31T17:22:23.720Z,41.53
2019-03-31T17:24:53.974Z,41.88
2019-03-31T17:27:26.215Z,41.13
2019-03-31T17:30:01.221Z,41.29
2019-03-31T17:32:44.779Z,41.72
2019-03-31T17:35:20.717Z,42.64
2019-03-31T17:37:51.043Z,43.49
2019-03-31T17:40:35.847Z,43.83
2019-03-31T17:43:06.209Z,45.24
2019-03-31T17:45:37.607Z,45.79
2019-03-31T17:48:06.163Z,45.98
2019-03-31T17:50:35.311Z,46.07
2019-03-31T17:53:06.816Z,46.60
2019-03-31T17:55:37.715Z,46.92
2019-03-31T17:58:09.655Z,47.65
2019-03-31T18:00:39.603Z,48.26
2019-03-31T18:03:08.751Z,48.50
2019-03-31T18:05:37.505Z,48.33
2019-03-31T18:08:11.265Z,48.08
2019-03-31T18:10:41.853Z,48.83
2019-03-31T18:13:11.092Z,48.75
2019-03-31T18:15:41.032Z,49.26
2019-03-31T18:18:09.758Z,49.33
2019-03-31T18:20:38.515Z,49.33
2019-03-31T18:23:07.057Z,49.33
2019-03-31T18:25:40.267Z,50.01
2019-03-31T18:28:13.470Z,49.97
2019-03-31T18:30:45.817Z,49.96
2019-03-31T18:33:16.527Z,49.71
2019-03-31T18:35:45.273Z,50.94
2019-03-31T18:38:15.371Z,50.88
2019-03-31T18:40:44.266Z,51.03
2019-03-31T18:43:14.184Z,51.89
2019-03-31T18:45:45.626Z,52.01
2019-03-31T18:48:16.629Z,53.13
2019-03-31T18:50:45.189Z,53.65
2019-03-31T18:53:18.118Z,54.96
2019-03-31T18:56:16.299Z,55.78
2019-03-31T18:58:57.912Z,57.95
2019-03-31T19:01:59.258Z,57.86
2019-03-31T19:04:41.976Z,57.47
2019-03-31T19:07:55.501Z,58.78
2019-03-31T19:10:48.792Z,59.47
2019-03-31T19:13:19.305Z,59.67
2019-03-31T19:16:09.851Z,60.44
2019-03-31T19:19:00.175Z,60.87
2019-03-31T19:22:08.762Z,61.84
2019-03-31T19:24:50.174Z,62.27
2019-03-31T19:27:34.581Z,62.78
2019-03-31T19:30:34.889Z,63.19
2019-03-31T19:33:20.155Z,63.68
2019-03-31T19:36:06.296Z,64.07
2019-03-31T19:38:46.215Z,64.87
2019-03-31T19:41:53.309Z,64.89
2019-03-31T19:44:48.499Z,65.30
2019-03-31T19:47:28.169Z,65.45
2019-03-31T19:50:11.070Z,65.50
2019-03-31T19:52:55.935Z,65.38
2019-03-31T19:55:45.707Z,64.64
2019-03-31T19:58:33.848Z,64.13
2019-03-31T20:01:15.483Z,64.36
2019-03-31T20:04:13.528Z,64.78
2019-03-31T20:06:49.299Z,64.80
2019-03-31T20:09:40.294Z,65.14
2019-03-31T20:12:40.408Z,65.58
2019-03-31T20:15:24.770Z,65.56
2019-03-31T20:18:12.709Z,65.85
2019-03-31T20:20:53.992Z,66.06
2019-03-31T20:23:54.269Z,66.38
2019-03-31T20:26:36.425Z,66.90
2019-03-31T20:29:10.038Z,66.26
2019-03-31T20:31:56.136Z,66.53
2019-03-31T20:34:39.437Z,66.75
2019-03-31T20:37:17.568Z,66.47
2019-03-31T20:40:01.090Z,66.65
2019-03-31T20:42:52.105Z,66.79
2019-03-31T20:45:21.230Z,66.76
2019-03-31T20:47:50.386Z,66.75
2019-03-31T20:50:19.868Z,67.12
2019-03-31T20:52:48.795Z,66.95
2019-03-31T20:55:19.412Z,66.97
2019-03-31T20:57:50.143Z,67.12
2019-03-31T21:00:19.528Z,67.20
2019-03-31T21:02:50.580Z,66.80
2019-03-31T21:05:22.730Z,66.84
2019-03-31T21:07:51.643Z,66.79
2019-03-31T21:10:20.717Z,66.40
2019-03-31T21:13:13.475Z,66.40
2019-03-31T21:15:42.092Z,66.56
2019-03-31T21:18:19.368Z,66.05
2019-03-31T21:20:48.318Z,66.04
2019-03-31T21:23:19.036Z,66.28
2019-03-31T21:25:49.899Z,66.71
2019-03-31T21:28:22.397Z,67.46
2019-03-31T21:30:52.320Z,67.60
2019-03-31T21:33:24.496Z,67.85
2019-03-31T21:35:57.806Z,68.07
2019-03-31T21:38:26.765Z,67.70
2019-03-31T21:40:55.322Z,67.77
2019-03-31T21:43:29.030Z,67.86
2019-03-31T21:45:59.574Z,67.78
2019-03-31T21:48:28.383Z,67.71
2019-03-31T21:50:57.151Z,67.78
2019-03-31T21:53:29.642Z,68.31
2019-03-31T21:55:58.383Z,67.90
2019-03-31T21:58:32.087Z,68.71
2019-03-31T22:01:01.160Z,68.56
2019-03-31T22:03:30.111Z,68.18
2019-03-31T22:05:59.002Z,68.45
2019-03-31T22:08:28.239Z,68.05
2019-03-31T22:10:57.702Z,67.73
2019-03-31T22:13:26.461Z,67.92
2019-03-31T22:15:55.011Z,67.71
2019-03-31T22:18:25.533Z,67.16
2019-03-31T22:20:56.052Z,67.04
2019-03-31T22:23:26.946Z,67.36
2019-03-31T22:25:55.854Z,67.50
2019-03-31T22:28:29.626Z,68.55
2019-03-31T22:31:02.909Z,68.54
2019-03-31T22:33:33.016Z,68.43
2019-03-31T22:36:19.417Z,69.06
2019-03-31T22:38:56.796Z,68.06
2019-03-31T22:41:25.347Z,67.64
2019-03-31T22:43:55.290Z,68.17
2019-03-31T22:46:24.200Z,68.68
2019-03-31T22:48:57.449Z,69.07
2019-03-31T22:51:29.327Z,68.51
2019-03-31T22:53:57.877Z,68.96
2019-03-31T22:56:32.250Z,68.86
2019-03-31T22:59:09.628Z,69.14
2019-03-31T23:01:37.119Z,70.51
2019-03-31T23:04:08.018Z,70.20
2019-03-31T23:06:36.584Z,70.63
2019-03-31T23:09:10.958Z,70.64
2019-03-31T23:11:39.939Z,70.57
2019-03-31T23:14:10.635Z,70.32
2019-03-31T23:16:39.221Z,71.12
2019-03-31T23:19:11.313Z,71.11
2019-03-31T23:21:41.833Z,71.20
2019-03-31T23:24:10.402Z,70.96
2019-03-31T23:26:41.522Z,70.82
2019-03-31T23:29:11.728Z,71.13
2019-03-31T23:31:44.956Z,71.71
2019-03-31T23:34:13.708Z,72.28
2019-03-31T23:36:42.925Z,72.10
2019-03-31T23:39:11.906Z,71.68
2019-03-31T23:41:41.995Z,71.57
2019-03-31T23:44:11.068Z,71.32
2019-03-31T23:46:40.269Z,71.68
2019-03-31T23:49:10.827Z,71.78
2019-03-31T23:51:44.506Z,72.20
2019-03-31T23:54:17.826Z,72.09
2019-03-31T23:56:50.079Z,72.28
2019-03-31T23:59:18.841Z,71.93
